Time;durP1;ratioP1;P1;durP2;ratioP2;P2;SDS_P1;SDS_P2;PMS_P1;PMS_P2;Temp;Humidity;BMP_temperature;BMP_pressure;BME280_temperature;BME280_humidity;BME280_pressure;Samples;Min_cycle;Max_cycle;Signal;HPM_P1;HPM_P2
2022/04/05 00:00:28;;;;;;;9.95;6.78;;;11.60;60.70;;;;;;6251913;23;20050;-79
2022/04/05 00:02:56;;;;;;;12.63;6.75;;;11.60;60.90;;;;;;6252181;23;20054;-79
2022/04/05 00:05:23;;;;;;;11.50;6.75;;;11.60;61.10;;;;;;6251781;23;20024;-80
2022/04/05 00:07:50;;;;;;;12.80;7.05;;;11.60;61.10;;;;;;6254041;23;20022;-81
2022/04/05 00:10:17;;;;;;;10.35;6.55;;;11.60;61.10;;;;;;6256486;23;20034;-79
2022/04/05 00:12:44;;;;;;;11.10;7.53;;;11.50;61.40;;;;;;6253961;23;20020;-80
2022/04/05 00:15:12;;;;;;;10.57;6.60;;;11.60;61.10;;;;;;6254355;23;20094;-79
2022/04/05 00:17:41;;;;;;;14.65;7.07;;;11.70;61.00;;;;;;6252907;23;20024;-80
2022/04/05 00:20:12;;;;;;;11.27;7.10;;;11.70;61.00;;;;;;6253196;23;20024;-79
2022/04/05 00:22:39;;;;;;;9.32;6.88;;;11.80;61.10;;;;;;6252824;23;20020;-79
2022/04/05 00:25:08;;;;;;;13.35;6.78;;;11.70;61.10;;;;;;6256832;23;20039;-79
2022/04/05 00:27:35;;;;;;;13.77;7.03;;;11.80;61.10;;;;;;6254315;23;20024;-79
2022/04/05 00:30:02;;;;;;;11.52;6.80;;;11.70;61.40;;;;;;6255640;23;20024;-78
2022/04/05 00:32:29;;;;;;;13.30;7.50;;;11.70;61.70;;;;;;6254775;23;20034;-78
2022/04/05 00:34:58;;;;;;;12.02;6.80;;;11.80;61.50;;;;;;6254986;23;20032;-79
2022/04/05 00:37:25;;;;;;;13.23;7.10;;;11.80;61.50;;;;;;6254410;23;20036;-79
2022/04/05 00:39:52;;;;;;;15.30;7.35;;;11.70;61.90;;;;;;6254447;23;20027;-79
2022/04/05 00:42:19;;;;;;;11.75;7.30;;;11.70;62.00;;;;;;6252866;23;20028;-79
2022/04/05 00:44:46;;;;;;;10.35;6.93;;;11.50;62.70;;;;;;6254467;23;20028;-80
2022/04/05 00:47:17;;;;;;;11.45;7.18;;;11.60;62.70;;;;;;6254685;23;20024;-79
2022/04/05 00:49:46;;;;;;;16.00;7.30;;;11.70;62.50;;;;;;6252048;23;20090;-80
2022/04/05 00:52:15;;;;;;;16.98;7.40;;;11.60;63.30;;;;;;6254731;23;20350;-79
2022/04/05 00:54:44;;;;;;;11.82;7.28;;;11.50;63.70;;;;;;6254926;23;20028;-79
2022/04/05 00:57:14;;;;;;;13.40;7.38;;;11.50;63.90;;;;;;6265789;23;20107;-78
2022/04/05 00:59:43;;;;;;;12.05;7.80;;;11.60;63.80;;;;;;6256509;23;20039;-79
2022/04/05 01:02:16;;;;;;;12.38;7.97;;;11.70;63.90;;;;;;6254655;23;20047;-79
2022/04/05 01:04:44;;;;;;;12.95;7.78;;;11.70;63.80;;;;;;6253113;23;20040;-79
2022/04/05 01:07:16;;;;;;;13.65;7.25;;;11.70;63.70;;;;;;6252429;23;20024;-78
2022/04/05 01:09:43;;;;;;;14.75;8.30;;;11.80;63.70;;;;;;6247483;23;20043;-79
2022/04/05 01:12:13;;;;;;;11.77;7.35;;;11.80;63.70;;;;;;6248189;23;20396;-79
2022/04/05 01:14:42;;;;;;;9.02;7.07;;;11.70;63.90;;;;;;6247856;23;20028;-79
2022/04/05 01:17:19;;;;;;;13.98;7.80;;;11.50;64.30;;;;;;6248971;23;20378;-79
2022/04/05 01:19:47;;;;;;;11.85;7.75;;;11.20;65.50;;;;;;6253461;23;20027;-79
2022/04/05 01:22:16;;;;;;;11.88;7.75;;;11.40;65.50;;;;;;6267004;23;20046;-79
2022/04/05 01:24:45;;;;;;;13.07;7.75;;;11.50;65.00;;;;;;6271206;23;20024;-80
2022/04/05 01:27:17;;;;;;;12.10;7.35;;;11.60;64.90;;;;;;6262131;23;20039;-80
2022/04/05 01:29:47;;;;;;;13.45;7.95;;;11.60;65.00;;;;;;6253617;23;20020;-79
2022/04/05 01:32:15;;;;;;;11.30;7.93;;;11.60;65.00;;;;;;6252621;23;20488;-80
2022/04/05 01:34:46;;;;;;;11.32;7.45;;;11.70;64.80;;;;;;6251215;23;20020;-80
2022/04/05 01:37:13;;;;;;;12.95;7.43;;;11.80;64.60;;;;;;6249712;23;20027;-79
2022/04/05 01:39:43;;;;;;;12.85;7.53;;;11.70;64.70;;;;;;6249247;23;20428;-79
2022/04/05 01:42:13;;;;;;;12.27;7.85;;;11.70;65.00;;;;;;6247343;23;20028;-80
2022/04/05 01:44:42;;;;;;;14.95;7.88;;;11.70;65.00;;;;;;6247147;23;20024;-79
2022/04/05 01:47:11;;;;;;;11.30;7.93;;;11.70;65.10;;;;;;6247413;23;20441;-79
2022/04/05 01:49:39;;;;;;;13.07;7.88;;;11.70;65.20;;;;;;6246607;23;20483;-80
2022/04/05 01:52:09;;;;;;;14.05;7.55;;;11.80;65.00;;;;;;6248707;23;20032;-80
2022/04/05 01:54:36;;;;;;;15.57;8.15;;;11.60;65.20;;;;;;6247488;23;20031;-80
2022/04/05 01:57:04;;;;;;;13.57;7.45;;;11.70;65.20;;;;;;6246572;23;20032;-80
2022/04/05 01:59:34;;;;;;;14.90;8.07;;;11.70;65.40;;;;;;6246906;23;20047;-79
2022/04/05 02:02:05;;;;;;;11.48;7.35;;;11.70;65.20;;;;;;6246030;23;20099;-79
2022/04/05 02:04:32;;;;;;;15.32;8.10;;;11.70;65.50;;;;;;6246208;23;20024;-79
2022/04/05 02:06:59;;;;;;;11.50;7.90;;;11.70;65.50;;;;;;6247450;23;20027;-78
2022/04/05 02:09:27;;;;;;;13.55;7.68;;;11.70;65.60;;;;;;6246401;23;20115;-80
2022/04/05 02:11:54;;;;;;;10.88;7.93;;;11.80;65.50;;;;;;6246937;23;20392;-79
2022/04/05 02:14:21;;;;;;;15.50;8.27;;;11.80;65.30;;;;;;6247076;23;20043;-80
2022/04/05 02:16:49;;;;;;;12.13;7.68;;;11.80;65.40;;;;;;6247102;23;20020;-79
2022/04/05 02:19:16;;;;;;;11.02;7.40;;;11.80;65.60;;;;;;6246926;23;20032;-80
2022/04/05 02:21:43;;;;;;;12.65;7.57;;;11.80;65.60;;;;;;6245773;23;20020;-79
2022/04/05 02:24:11;;;;;;;12.70;7.88;;;11.80;65.60;;;;;;6246263;23;20404;-80
2022/04/05 02:26:38;;;;;;;12.13;7.70;;;11.80;65.60;;;;;;6245901;23;20035;-79
2022/04/05 02:29:06;;;;;;;12.73;8.55;;;11.80;65.80;;;;;;6245646;23;20020;-79
2022/04/05 02:31:33;;;;;;;12.05;7.85;;;11.80;65.90;;;;;;6246288;23;20377;-79
2022/04/05 02:34:02;;;;;;;15.98;8.23;;;11.70;66.20;;;;;;6246759;23;20036;-80
2022/04/05 02:36:29;;;;;;;14.20;8.50;;;11.70;67.10;;;;;;6244106;23;20048;-79
2022/04/05 02:38:56;;;;;;;17.20;8.02;;;11.70;66.30;;;;;;6246839;23;20472;-79
2022/04/05 02:41:25;;;;;;;12.98;8.45;;;11.70;66.60;;;;;;6246510;23;20077;-80
2022/04/05 02:43:52;;;;;;;14.20;8.35;;;11.70;66.50;;;;;;6247979;23;20106;-80
2022/04/05 02:46:19;;;;;;;9.40;8.05;;;11.80;66.40;;;;;;6247190;23;20450;-79
2022/04/05 02:48:46;;;;;;;13.13;7.95;;;11.80;66.50;;;;;;6248604;23;20020;-80
2022/04/05 02:51:15;;;;;;;13.10;9.18;;;11.80;66.60;;;;;;6247709;23;20034;-78
2022/04/05 02:53:43;;;;;;;13.43;8.32;;;11.90;66.50;;;;;;6247841;23;20024;-78
2022/04/05 02:56:11;;;;;;;14.27;8.70;;;11.90;66.40;;;;;;6246404;23;20043;-79
2022/04/05 02:58:39;;;;;;;14.32;8.27;;;12.00;66.40;;;;;;6246499;23;20023;-79
2022/04/05 03:01:06;;;;;;;15.75;8.35;;;12.00;66.50;;;;;;6247567;23;20097;-79
2022/04/05 03:03:33;;;;;;;13.70;8.80;;;11.90;66.60;;;;;;6244956;23;20028;-79
2022/04/05 03:06:00;;;;;;;10.02;8.30;;;11.90;66.90;;;;;;6246270;23;20698;-79
2022/04/05 03:08:29;;;;;;;14.27;9.13;;;11.90;67.00;;;;;;6247486;23;20020;-79
2022/04/05 03:10:56;;;;;;;14.73;9.30;;;11.90;67.10;;;;;;6248108;23;20028;-80
2022/04/05 03:13:23;;;;;;;14.30;9.25;;;11.90;67.30;;;;;;6247491;23;20023;-80
2022/04/05 03:15:50;;;;;;;16.83;9.98;;;11.90;67.50;;;;;;6247408;23;20020;-80
2022/04/05 03:18:17;;;;;;;13.50;9.85;;;11.90;67.60;;;;;;6246520;23;20028;-80
2022/04/05 03:20:44;;;;;;;17.63;10.18;;;12.00;67.80;;;;;;6247122;23;20034;-80
2022/04/05 03:23:12;;;;;;;16.20;10.40;;;11.80;68.80;;;;;;6248441;23;20035;-79
2022/04/05 03:25:40;;;;;;;21.08;11.52;;;11.70;68.80;;;;;;6247657;23;20515;-80
2022/04/05 03:28:07;;;;;;;16.60;10.68;;;11.80;69.00;;;;;;6248678;23;20024;-79
2022/04/05 03:30:37;;;;;;;13.15;9.70;;;11.80;69.00;;;;;;6249872;23;20040;-80
2022/04/05 03:33:04;;;;;;;13.73;10.60;;;11.80;69.10;;;;;;6258628;23;20020;-80
2022/04/05 03:35:31;;;;;;;19.58;11.45;;;11.90;69.10;;;;;;6258047;23;20020;-80
2022/04/05 03:37:59;;;;;;;15.30;10.13;;;11.90;69.20;;;;;;6259076;23;20028;-80
2022/04/05 03:40:26;;;;;;;21.05;11.50;;;12.00;69.40;;;;;;6258285;23;20034;-79
2022/04/05 03:42:55;;;;;;;17.70;12.07;;;12.00;69.40;;;;;;6262421;23;20024;-80
2022/04/05 03:45:22;;;;;;;17.48;11.80;;;11.90;69.40;;;;;;6265699;23;20047;-81
2022/04/05 03:47:49;;;;;;;18.85;12.38;;;11.90;69.50;;;;;;6268858;23;20024;-79
2022/04/05 03:50:18;;;;;;;17.35;11.77;;;11.80;69.70;;;;;;6268057;23;20024;-80
2022/04/05 03:52:45;;;;;;;21.77;12.55;;;11.80;69.90;;;;;;6265415;23;20020;-79
2022/04/05 03:55:12;;;;;;;19.73;11.80;;;11.80;70.00;;;;;;6264561;23;20046;-80
2022/04/05 03:57:39;;;;;;;19.13;12.57;;;11.80;70.00;;;;;;6262978;23;20032;-80
2022/04/05 04:00:09;;;;;;;20.27;12.50;;;11.80;70.00;;;;;;6259929;23;20054;-80
2022/04/05 04:02:36;;;;;;;21.33;13.05;;;11.80;70.10;;;;;;6260387;23;20028;-80
2022/04/05 04:05:04;;;;;;;21.10;12.93;;;11.70;70.20;;;;;;6262336;23;20024;-80
2022/04/05 04:07:31;;;;;;;20.30;13.38;;;11.70;70.30;;;;;;6256379;23;20017;-80
2022/04/05 04:10:03;;;;;;;16.92;12.38;;;11.80;70.60;;;;;;6257047;23;20607;-80
2022/04/05 04:12:31;;;;;;;17.67;12.93;;;11.70;70.50;;;;;;6258272;23;20028;-80
2022/04/05 04:14:59;;;;;;;16.33;12.82;;;11.80;70.80;;;;;;6250534;23;20024;-80
2022/04/05 04:17:27;;;;;;;17.13;13.23;;;11.70;70.60;;;;;;6246836;23;20028;-79
2022/04/05 04:19:55;;;;;;;20.63;13.63;;;11.80;70.90;;;;;;6245931;23;20466;-80
2022/04/05 04:22:22;;;;;;;20.67;13.82;;;11.70;71.30;;;;;;6246902;23;20048;-80
2022/04/05 04:24:49;;;;;;;21.52;14.20;;;11.70;71.10;;;;;;6248680;23;20027;-80
2022/04/05 04:27:16;;;;;;;19.75;13.77;;;11.70;71.10;;;;;;6246240;23;20090;-79
2022/04/05 04:29:43;;;;;;;20.77;13.18;;;11.80;71.20;;;;;;6247859;23;20028;-80
2022/04/05 04:32:10;;;;;;;18.50;13.95;;;11.80;71.20;;;;;;6254260;23;20028;-79
2022/04/05 04:34:39;;;;;;;20.30;14.60;;;11.80;71.20;;;;;;6250879;23;20028;-79
2022/04/05 04:37:06;;;;;;;19.30;13.85;;;11.80;71.20;;;;;;6249151;23;20093;-78
2022/04/05 04:39:35;;;;;;;18.10;13.20;;;11.80;71.30;;;;;;6248114;23;20024;-79
2022/04/05 04:42:02;;;;;;;18.52;13.68;;;11.80;71.50;;;;;;6249592;23;20028;-78
2022/04/05 04:44:29;;;;;;;20.13;13.88;;;11.70;71.50;;;;;;6248234;23;20300;-79
2022/04/05 04:46:56;;;;;;;24.08;14.52;;;11.80;71.60;;;;;;6247784;23;20031;-80
2022/04/05 04:49:23;;;;;;;18.30;13.77;;;11.80;72.40;;;;;;6247278;23;20036;-80
2022/04/05 04:51:52;;;;;;;17.40;12.88;;;11.80;71.60;;;;;;6247557;23;20036;-79
2022/04/05 04:54:19;;;;;;;18.00;12.85;;;11.80;71.60;;;;;;6246977;23;20020;-80
2022/04/05 04:56:46;;;;;;;16.85;12.85;;;11.80;71.80;;;;;;6246146;23;20066;-80
2022/04/05 04:59:13;;;;;;;21.30;14.07;;;11.80;71.90;;;;;;6247866;23;20030;-80
2022/04/05 05:01:40;;;;;;;20.13;14.45;;;11.80;72.10;;;;;;6250314;23;20024;-80
2022/04/05 05:04:07;;;;;;;19.52;13.73;;;11.80;72.10;;;;;;6251941;23;20020;-79
2022/04/05 05:06:34;;;;;;;19.17;13.65;;;11.90;72.20;;;;;;6251496;23;20024;-79
2022/04/05 05:09:03;;;;;;;18.48;13.95;;;11.90;72.20;;;;;;6268585;23;20034;-79
2022/04/05 05:11:30;;;;;;;21.10;14.82;;;11.90;72.00;;;;;;6270577;23;20024;-80
2022/04/05 05:13:57;;;;;;;18.80;14.35;;;12.00;72.10;;;;;;6257626;23;20040;-80
2022/04/05 05:16:24;;;;;;;25.35;15.70;;;12.00;72.20;;;;;;6254633;23;20331;-80
2022/04/05 05:18:51;;;;;;;17.33;12.88;;;12.00;72.30;;;;;;6253506;23;20028;-78
2022/04/05 05:21:19;;;;;;;19.27;13.13;;;12.00;72.20;;;;;;6250357;23;20038;-79
2022/04/05 05:23:46;;;;;;;16.63;12.85;;;12.00;72.30;;;;;;6248342;23;20338;-79
2022/04/05 05:26:15;;;;;;;16.20;12.70;;;11.70;72.50;;;;;;6247735;23;20058;-80
2022/04/05 05:28:47;;;;;;;15.70;11.80;;;11.70;73.70;;;;;;6248249;23;20016;-79
2022/04/05 05:31:15;;;;;;;16.83;11.82;;;11.60;73.10;;;;;;6250412;23;20034;-79
2022/04/05 05:33:42;;;;;;;14.73;11.95;;;11.70;73.30;;;;;;6248653;23;20024;-79
2022/04/05 05:36:09;;;;;;;15.23;11.40;;;11.70;73.20;;;;;;6247028;23;20054;-79
2022/04/05 05:38:36;;;;;;;14.30;11.48;;;11.80;73.00;;;;;;6247436;23;20118;-80
2022/04/05 05:41:04;;;;;;;16.20;12.32;;;11.80;73.00;;;;;;6246203;23;20027;-79
2022/04/05 05:43:33;;;;;;;14.07;11.48;;;11.80;73.00;;;;;;6245821;23;20024;-80
2022/04/05 05:46:03;;;;;;;17.30;12.13;;;11.80;73.30;;;;;;6248534;23;20044;-80
2022/04/05 05:48:30;;;;;;;16.33;11.07;;;11.80;73.20;;;;;;6247735;23;20028;-79
2022/04/05 05:50:59;;;;;;;15.32;12.07;;;11.80;73.90;;;;;;6247528;23;20110;-80
2022/04/05 05:53:27;;;;;;;18.30;12.60;;;11.80;73.20;;;;;;6247630;23;20558;-79
2022/04/05 05:55:54;;;;;;;24.45;12.70;;;11.80;73.20;;;;;;6245845;23;20111;-79
2022/04/05 05:58:21;;;;;;;16.90;12.23;;;11.90;73.40;;;;;;6248299;23;20110;-79
2022/04/05 06:00:50;;;;;;;16.20;12.15;;;11.80;73.30;;;;;;6249223;23;20028;-79
2022/04/05 06:03:17;;;;;;;15.18;11.43;;;11.80;73.40;;;;;;6247348;23;20043;-79
2022/04/05 06:05:46;;;;;;;17.73;12.82;;;11.80;73.60;;;;;;6246742;23;20028;-79
2022/04/05 06:08:14;;;;;;;18.40;13.07;;;11.80;73.70;;;;;;6245744;23;20381;-79
2022/04/05 06:10:41;;;;;;;20.83;13.75;;;11.90;73.80;;;;;;6246290;23;20046;-79
2022/04/05 06:13:08;;;;;;;18.30;13.60;;;11.80;73.60;;;;;;6246951;23;20469;-79
2022/04/05 06:15:36;;;;;;;18.92;13.10;;;11.90;73.60;;;;;;6245348;23;20058;-79
2022/04/05 06:18:08;;;;;;;16.80;13.00;;;11.90;73.50;;;;;;6244315;23;20048;-78
2022/04/05 06:20:35;;;;;;;21.80;14.32;;;11.90;73.50;;;;;;6244968;23;20078;-78
2022/04/05 06:23:05;;;;;;;19.08;13.75;;;11.80;73.60;;;;;;6244748;23;20028;-78
2022/04/05 06:25:34;;;;;;;21.80;14.75;;;11.80;73.60;;;;;;6244184;23;20020;-78
2022/04/05 06:28:03;;;;;;;20.35;14.40;;;11.70;73.80;;;;;;6247324;23;20020;-78
2022/04/05 06:30:32;;;;;;;19.98;14.23;;;11.70;74.00;;;;;;6246982;23;20048;-79
2022/04/05 06:33:09;;;;;;;18.77;14.20;;;11.70;74.50;;;;;;6244067;23;20028;-79
2022/04/05 06:35:36;;;;;;;18.20;13.85;;;11.70;74.30;;;;;;6245229;23;20028;-79
2022/04/05 06:38:03;;;;;;;21.00;13.18;;;11.80;74.20;;;;;;6243962;23;20306;-79
2022/04/05 06:40:31;;;;;;;19.75;13.75;;;11.90;74.10;;;;;;6243982;23;20051;-79
2022/04/05 06:42:58;;;;;;;18.05;13.30;;;11.90;74.20;;;;;;6245330;23;20020;-79
2022/04/05 06:45:25;;;;;;;20.10;14.45;;;12.00;74.20;;;;;;6243984;23;20063;-79
2022/04/05 06:47:52;;;;;;;19.40;13.82;;;12.00;74.20;;;;;;6243638;23;20024;-79
2022/04/05 06:50:24;;;;;;;20.27;14.00;;;12.00;74.10;;;;;;6244376;23;20028;-80
2022/04/05 06:56:12;;;;;;;20.63;14.70;;;12.00;73.90;;;;;;6247456;23;20785;-87
2022/04/05 06:58:39;;;;;;;18.75;13.85;;;12.10;73.90;;;;;;6249360;23;20036;-79
2022/04/05 07:01:09;;;;;;;19.98;14.10;;;12.10;73.80;;;;;;6248126;23;20024;-80
2022/04/05 07:03:36;;;;;;;24.75;14.90;;;12.10;73.90;;;;;;6243909;23;20035;-80
2022/04/05 07:06:04;;;;;;;22.30;15.55;;;12.10;74.80;;;;;;6244828;23;20056;-80
2022/04/05 07:08:32;;;;;;;26.15;17.02;;;12.00;74.20;;;;;;6243632;23;20027;-80
2022/04/05 07:10:59;;;;;;;24.25;15.13;;;12.10;74.40;;;;;;6244654;23;20028;-81
2022/04/05 07:13:27;;;;;;;24.35;15.55;;;12.10;74.40;;;;;;6244962;23;20370;-80
2022/04/05 07:15:54;;;;;;;20.60;14.93;;;12.10;74.50;;;;;;6246479;23;20035;-80
2022/04/05 07:18:21;;;;;;;37.63;18.25;;;12.10;74.40;;;;;;6244922;23;20059;-78
2022/04/05 07:20:48;;;;;;;27.20;17.85;;;12.20;74.70;;;;;;6245192;23;20228;-80
2022/04/05 07:23:16;;;;;;;27.20;17.20;;;12.20;74.80;;;;;;6245374;23;20052;-79
2022/04/05 07:25:43;;;;;;;24.60;16.42;;;12.30;75.00;;;;;;6245426;23;20082;-80
2022/04/05 07:28:10;;;;;;;22.52;15.80;;;12.20;74.70;;;;;;6250521;23;20461;-81
2022/04/05 07:30:37;;;;;;;24.48;15.50;;;12.10;74.70;;;;;;6251183;23;20024;-80
2022/04/05 07:33:04;;;;;;;23.17;15.27;;;12.10;74.80;;;;;;6246049;23;20054;-80
2022/04/05 07:35:31;;;;;;;23.40;15.88;;;12.10;74.70;;;;;;6245960;23;20078;-81
2022/04/05 07:37:58;;;;;;;25.92;17.10;;;12.10;75.00;;;;;;6246869;23;20086;-81
2022/04/05 07:40:47;;;;;;;22.10;15.02;;;12.10;75.00;;;;;;6247172;23;20645;-80
2022/04/05 07:43:15;;;;;;;21.77;14.77;;;12.10;75.20;;;;;;6245728;23;20671;-81
2022/04/05 07:45:42;;;;;;;25.52;16.10;;;12.10;75.20;;;;;;6246217;23;20048;-79
2022/04/05 07:48:09;;;;;;;23.05;15.32;;;12.00;75.50;;;;;;6245723;23;20074;-80
2022/04/05 07:50:36;;;;;;;25.13;16.17;;;12.00;75.70;;;;;;6246675;23;20028;-80
2022/04/05 07:53:03;;;;;;;23.98;16.40;;;12.00;76.00;;;;;;6245195;23;20047;-80
2022/04/05 07:55:31;;;;;;;23.60;16.50;;;12.10;76.80;;;;;;6245435;23;20112;-81
2022/04/05 07:57:58;;;;;;;23.67;15.02;;;12.10;76.00;;;;;;6244584;23;20028;-80
2022/04/05 08:00:27;;;;;;;22.98;15.57;;;12.10;75.90;;;;;;6247433;23;20197;-81
2022/04/05 08:02:53;;;;;;;27.10;16.30;;;12.00;76.90;;;;;;6227206;23;20028;-79
2022/04/05 08:05:20;;;;;;;24.52;16.10;;;12.00;76.90;;;;;;6215183;23;20517;-79
2022/04/05 08:07:47;;;;;;;23.52;15.07;;;12.00;76.90;;;;;;6214178;23;20059;-79
2022/04/05 08:10:15;;;;;;;23.50;15.43;;;12.10;77.00;;;;;;6215128;23;20460;-78
2022/04/05 08:12:44;;;;;;;21.63;15.35;;;12.10;76.70;;;;;;6214783;23;20078;-78
2022/04/05 08:15:11;;;;;;;25.05;15.55;;;12.10;76.70;;;;;;6214026;23;20484;-79
2022/04/05 08:17:39;;;;;;;23.60;15.40;;;12.30;76.60;;;;;;6214242;23;20024;-79
2022/04/05 08:20:08;;;;;;;22.90;15.18;;;12.20;76.40;;;;;;6213810;23;20079;-80
2022/04/05 08:22:35;;;;;;;19.20;13.88;;;12.30;77.20;;;;;;6214607;23;20028;-80
2022/04/05 08:25:02;;;;;;;23.35;14.55;;;12.30;76.10;;;;;;6213812;23;20028;-80
2022/04/05 08:27:30;;;;;;;23.40;15.52;;;12.30;76.30;;;;;;6185313;23;20032;-81
2022/04/05 08:29:58;;;;;;;22.65;15.48;;;12.30;76.30;;;;;;6186622;23;20044;-78
2022/04/05 08:32:25;;;;;;;23.10;15.38;;;12.30;76.00;;;;;;6186237;23;20025;-79
2022/04/05 08:34:52;;;;;;;22.95;15.13;;;12.30;75.90;;;;;;6187303;23;20068;-79
2022/04/05 08:37:19;;;;;;;23.73;15.13;;;12.40;75.90;;;;;;6185105;23;20035;-79
2022/04/05 08:39:46;;;;;;;25.73;16.05;;;12.40;76.00;;;;;;6184033;23;20083;-79
2022/04/05 08:42:14;;;;;;;25.60;16.42;;;12.40;76.00;;;;;;6183626;23;20029;-78
2022/04/05 08:44:43;;;;;;;28.00;17.42;;;12.30;76.00;;;;;;6184445;23;20033;-79
2022/04/05 08:47:13;;;;;;;28.25;16.80;;;12.30;76.00;;;;;;6186141;23;20029;-79
2022/04/05 08:49:41;;;;;;;30.65;18.38;;;12.40;76.00;;;;;;6186287;23;20104;-79
2022/04/05 08:52:09;;;;;;;26.98;18.08;;;12.40;76.00;;;;;;6186743;23;20025;-78
2022/04/05 08:54:36;;;;;;;27.63;17.48;;;12.50;76.00;;;;;;6186994;23;20632;-79
2022/04/05 08:57:03;;;;;;;26.55;17.10;;;12.50;76.10;;;;;;6187718;23;20036;-79
2022/04/05 08:59:31;;;;;;;28.52;18.13;;;12.60;76.10;;;;;;6199191;23;20036;-79
2022/04/05 09:01:59;;;;;;;28.38;17.70;;;12.70;76.10;;;;;;6204957;23;20107;-79
2022/04/05 09:04:33;;;;;;;27.65;18.10;;;12.70;76.10;;;;;;6208019;23;20029;-80
2022/04/05 09:07:18;;;;;;;28.55;18.75;;;12.70;76.10;;;;;;6241618;23;20027;-80
2022/04/05 09:09:45;;;;;;;25.65;16.42;;;12.80;76.20;;;;;;6213587;22;20060;-81
2022/04/05 09:12:17;;;;;;;25.30;16.58;;;12.80;75.80;;;;;;6209156;23;20049;-80
2022/04/05 09:14:44;;;;;;;26.85;16.48;;;12.70;76.20;;;;;;6210731;23;20013;-79
2022/04/05 09:17:13;;;;;;;27.70;16.17;;;12.80;76.40;;;;;;6210299;23;20032;-80
2022/04/05 09:19:45;;;;;;;26.20;15.55;;;12.90;76.50;;;;;;6204179;23;20029;-79
2022/04/05 09:22:12;;;;;;;24.38;15.65;;;12.80;76.30;;;;;;6207363;23;20025;-80
2022/04/05 09:24:43;;;;;;;26.55;16.08;;;12.90;76.30;;;;;;6191514;23;20056;-80
2022/04/05 09:27:10;;;;;;;26.13;15.70;;;12.80;76.50;;;;;;6190475;23;20035;-79
2022/04/05 09:29:42;;;;;;;27.20;16.80;;;12.80;76.60;;;;;;6190844;23;20105;-81
2022/04/05 09:32:10;;;;;;;28.00;18.20;;;12.80;76.80;;;;;;6189131;23;20041;-79
2022/04/05 09:34:51;;;;;;;28.23;17.83;;;13.00;76.80;;;;;;6187734;23;20025;-79
2022/04/05 09:37:25;;;;;;;27.37;15.77;;;13.00;76.80;;;;;;6188488;23;20088;-80
2022/04/05 09:39:55;;;;;;;33.83;19.98;;;13.10;76.40;;;;;;6189170;23;20113;-83
2022/04/05 09:42:22;;;;;;;258.50;36.13;;;13.10;76.50;;;;;;6187688;23;20029;-79
2022/04/05 09:44:49;;;;;;;25.27;16.23;;;13.10;76.60;;;;;;6187556;23;20025;-83
2022/04/05 09:47:17;;;;;;;24.35;16.55;;;13.10;76.60;;;;;;6187177;23;20025;-81
2022/04/05 09:49:45;;;;;;;26.30;16.60;;;13.10;76.60;;;;;;6186172;23;20124;-79
2022/04/05 09:52:28;;;;;;;26.92;15.52;;;13.10;76.80;;;;;;6187961;23;20068;-81
2022/04/05 09:54:56;;;;;;;23.55;14.50;;;13.10;76.40;;;;;;6187943;23;20363;-79
2022/04/05 09:57:30;;;;;;;24.05;13.55;;;13.10;76.60;;;;;;6186531;23;20450;-79
2022/04/05 10:00:08;;;;;;;34.55;15.18;;;13.10;76.50;;;;;;6189006;23;20029;-81
2022/04/05 10:02:36;;;;;;;22.00;14.35;;;13.20;76.50;;;;;;6188134;23;20107;-80
2022/04/05 10:05:06;;;;;;;27.80;13.15;;;13.30;76.30;;;;;;6187164;23;20045;-79
2022/04/05 10:07:35;;;;;;;19.35;12.55;;;13.30;76.20;;;;;;6186517;23;20100;-79
2022/04/05 10:10:05;;;;;;;20.40;13.52;;;13.30;76.20;;;;;;6187706;23;20040;-79
2022/04/05 10:12:32;;;;;;;20.02;12.38;;;13.40;76.30;;;;;;6185358;23;20506;-78
2022/04/05 10:15:01;;;;;;;20.85;12.77;;;13.50;76.00;;;;;;6184526;23;20343;-78
2022/04/05 10:17:32;;;;;;;140.30;18.90;;;13.60;75.80;;;;;;6185653;23;20039;-81
2022/04/05 10:20:13;;;;;;;20.42;12.93;;;13.40;75.80;;;;;;6165869;23;20029;-80
2022/04/05 10:23:02;;;;;;;19.73;12.48;;;13.30;76.30;;;;;;6167125;23;20020;-81
2022/04/05 10:25:34;;;;;;;14.93;10.70;;;13.30;76.80;;;;;;6187552;23;20032;-81
2022/04/05 10:31:53;;;;;;;16.67;11.10;;;13.40;76.50;;;;;;6091226;23;20024;-86
2022/04/05 10:34:25;;;;;;;16.48;10.95;;;13.40;76.00;;;;;;6185596;23;20044;-78
2022/04/05 10:37:05;;;;;;;;;;;13.50;76.00;;;;;;6213246;23;20338;-79
2022/04/05 10:39:34;;;;;;;15.00;10.50;;;13.60;75.90;;;;;;6214737;23;20018;-79
2022/04/05 10:42:24;;;;;;;19.15;10.90;;;13.50;75.60;;;;;;6213939;23;20086;-79
2022/04/05 10:45:12;;;;;;;15.30;10.23;;;13.30;76.30;;;;;;6213422;23;20099;-80
2022/04/05 10:48:10;;;;;;;14.43;10.35;;;13.40;76.30;;;;;;6213731;23;20035;-79
2022/04/05 10:50:37;;;;;;;15.25;9.88;;;13.50;76.30;;;;;;6213872;23;20034;-79
2022/04/05 10:53:19;;;;;;;16.70;11.05;;;13.50;76.10;;;;;;6213906;23;20028;-79
2022/04/05 10:56:16;;;;;;;15.10;10.45;;;13.50;76.20;;;;;;6214023;23;20052;-78
2022/04/05 10:59:28;;;;;;;15.40;10.23;;;13.50;76.00;;;;;;6211345;23;20028;-79
2022/04/05 11:01:56;;;;;;;16.00;10.00;;;13.60;75.80;;;;;;6215670;23;20028;-79
2022/04/05 11:04:35;;;;;;;15.52;10.05;;;13.60;75.80;;;;;;6215526;23;20450;-79
2022/04/05 11:07:12;;;;;;;14.93;10.07;;;13.70;76.20;;;;;;6212403;23;20031;-79
2022/04/05 11:10:00;;;;;;;13.30;9.80;;;13.70;76.00;;;;;;6211942;23;20028;-79
2022/04/05 11:12:30;;;;;;;12.45;9.60;;;13.60;76.60;;;;;;6214170;23;20025;-80
2022/04/05 11:15:04;;;;;;;13.53;9.20;;;13.60;76.50;;;;;;6215251;23;20036;-81
2022/04/05 11:17:36;;;;;;;14.18;9.80;;;13.80;76.20;;;;;;6214467;23;20072;-80
2022/04/05 11:20:05;;;;;;;14.32;10.15;;;14.00;76.00;;;;;;6216001;23;20029;-79
2022/04/05 11:22:34;;;;;;;13.15;9.30;;;14.00;75.30;;;;;;6215610;23;20020;-81
2022/04/05 11:25:05;;;;;;;14.30;9.70;;;14.00;75.00;;;;;;6215640;23;20434;-80
2022/04/05 11:27:38;;;;;;;13.25;9.63;;;14.10;75.00;;;;;;6216648;23;20025;-78
2022/04/05 11:30:41;;;;;;;12.68;9.57;;;14.00;74.50;;;;;;6217071;23;20021;-80
2022/04/05 11:45:25;;;;;;;15.45;9.98;;;13.80;75.70;;;;;;6245705;22;20109;-78
2022/04/05 12:46:15;;;;;;;22.73;10.23;;;14.20;76.30;;;;;;6140056;22;20389;-81
2022/04/05 12:53:26;;;;;;;15.68;9.93;;;14.30;75.00;;;;;;6590289;19;20742;-82
2022/04/05 12:56:00;;;;;;;12.90;9.35;;;14.10;76.00;;;;;;6357589;19;20022;-80
2022/04/05 12:58:40;;;;;;;13.02;9.35;;;14.20;75.60;;;;;;6369894;19;20078;-80
2022/04/05 13:01:32;;;;;;;14.77;9.63;;;14.30;75.60;;;;;;6385279;19;19995;-83
2022/04/05 13:04:06;;;;;;;13.48;9.45;;;14.20;75.80;;;;;;6366786;19;20973;-82
2022/04/05 13:06:35;;;;;;;17.05;10.07;;;14.30;75.60;;;;;;6387961;19;20019;-82
2022/04/05 13:09:14;;;;;;;14.75;9.73;;;14.30;75.60;;;;;;6390828;19;20008;-82
2022/04/05 13:11:43;;;;;;;13.07;8.93;;;14.30;75.80;;;;;;6373032;19;20130;-84
2022/04/05 13:14:15;;;;;;;13.50;9.32;;;14.20;76.10;;;;;;6364351;19;20046;-82
2022/04/05 13:16:45;;;;;;;15.15;9.80;;;14.30;76.10;;;;;;6371417;19;20000;-82
2022/04/05 13:19:15;;;;;;;14.80;10.32;;;14.30;76.00;;;;;;6394863;19;20010;-83
2022/04/05 13:21:46;;;;;;;15.80;10.88;;;14.30;76.20;;;;;;6382101;19;19995;-80
2022/04/05 13:24:19;;;;;;;19.23;11.93;;;14.30;76.50;;;;;;6793764;19;20014;-80
2022/04/05 13:26:51;;;;;;;15.02;10.48;;;14.30;76.80;;;;;;7344019;19;20375;-81
2022/04/05 13:29:25;;;;;;;17.30;11.27;;;14.40;76.80;;;;;;7343129;19;20052;-83
2022/04/05 13:31:57;;;;;;;15.63;10.52;;;14.40;76.70;;;;;;7369241;19;20014;-82
2022/04/05 13:34:27;;;;;;;15.35;11.05;;;14.50;76.60;;;;;;7347755;19;20011;-83
2022/04/05 13:36:57;;;;;;;16.08;10.77;;;14.60;76.20;;;;;;7366047;19;20022;-81
2022/04/05 13:39:32;;;;;;;14.93;10.60;;;14.60;76.00;;;;;;7358135;19;20086;-81
2022/04/05 13:42:01;;;;;;;18.42;10.52;;;14.50;75.80;;;;;;7343445;19;20026;-79
2022/04/05 13:44:30;;;;;;;15.68;10.75;;;14.60;75.80;;;;;;7295215;19;20300;-80
2022/04/05 13:47:01;;;;;;;21.73;10.57;;;14.60;75.70;;;;;;7364523;19;20010;-80
2022/04/05 13:49:30;;;;;;;15.95;10.68;;;14.60;75.60;;;;;;7343704;19;20018;-80
2022/04/05 13:51:59;;;;;;;16.67;10.15;;;14.60;75.60;;;;;;7364317;19;20018;-82
2022/04/05 13:54:35;;;;;;;16.65;10.43;;;14.60;75.50;;;;;;7361507;19;20015;-86
2022/04/05 13:57:06;;;;;;;15.25;10.07;;;14.60;75.30;;;;;;7369950;19;20014;-81
2022/04/05 14:02:38;;;;;;;14.10;10.15;;;14.70;75.30;;;;;;7219696;19;20019;-86
2022/04/05 14:05:09;;;;;;;13.10;9.70;;;14.80;74.70;;;;;;7343417;19;20024;-91
2022/04/05 14:11:13;;;;;;;16.48;10.27;;;14.70;75.80;;;;;;7147090;19;20014;-86